< < Back
Terminal Aerodrome Forecast


Current Version              Previous Versions:   1  2  3  4  5  6  7  8  9  

Terminal Aerodrome Forecast

731
FTUS42 KGSP 261749
TAFGSP
TAF
KGSP 261749Z 2618/2718 10005KT P6SM OVC016
     FM270100 VRB03KT P6SM BKN025
     FM270400 35004KT P6SM SCT030=

Latest METAR

723
SAUS70 KWBC 271100 RRH
MTRGSP
METAR KGSP 271053Z AUTO 00000KT 9SM BKN040 00/M01 A3021 RMK AO2 SLP236
T00001011


USA.gov is the U.S. government's official web portal to all federal, state and local government web resources and services.